Airfield :
LOGIN :

Register | Disclaimer

   EN    FR    IT 

 










Legend :    VFR   Marginal VFR   IFR   Intensive IFR   Very Intensive IFR
Visi :
Ceiling :
>= 8 km
>= 3000ft
5 to 8 km
1000 to 3000 ft
1500m to 5 km
500 to 1000 ft
800 to 1500m
200 to 500 ft
< 800m
< 200 ft
Symbols :   Thunderstorms  Fog  Heavy snow  Heavy precipitations  Wind > 20 kt
SIGMETs :     Misc.  Thunderstorms  Icing  Turbulence  Mountain Waves  Volcanic Ashes







- Airport Elevation : 370 ft


EBBE - Beauvechain AB

CURRENT METAR :
  • 210425Z AUTO 25005KT 4400 BR NCD 02/01 Q1012 GRN

EXPIRED METARs :
  • 210414Z AUTO 25007KT 3600 BR NCD 01/01 Q1012 YLO
  • 210355Z AUTO 25007KT 4000 BR FEW028/// 02/01 Q1012 GRN
  • 210350Z AUTO 25006KT 3600 BR FEW013/// 02/01 Q1011 YLO
  • 210325Z AUTO 25006KT 3700 BR FEW006/// BKN028/// 02/01 Q1011 GRN
  • 210306Z AUTO 25005KT 4200 BR SCT006/// BKN009/// BKN023/// 02/01 Q1011 YLO
  • 210255Z AUTO 26005KT 4500 BR SCT007/// BKN021/// BKN025/// 02/01 Q1010 GRN
  • 210249Z AUTO 27005KT 4800 FEW006/// BKN021/// BKN044/// 02/01 Q1010 GRN
  • 210233Z AUTO 27005KT 6000 FEW004/// SCT006/// BKN025/// 02/01 Q1010 YLO
  • 210155Z AUTO 26004KT 4600 BR BKN004/// OVC018/// 02/01 Q1010 YLO

Expired Forecast.
No reported NOTAMs for that airfield.



MET'MAP, your aeronautical weather chart ! - Copyright ORBIFLY December 2007 - Disclaimer

ORBIFLY MET'MAP TEAM :

Programming & Development : Alexandra Zaïnal
Concept & Development : Baudouin d'Aumeries
Co-Development & Prog : Marc-Olivier Méhu
Technical & hardware support : Manuel Goepfert

Contact : metmap@orbifly.com




SOURCES & CREDITS :

   NOAA